createdAt,value
2019-03-27T00:01:17.396Z,4.97
2019-03-27T00:03:50.972Z,9.57
2019-03-27T00:06:24.518Z,6.23
2019-03-27T00:08:57.074Z,5.12
2019-03-27T00:11:30.261Z,7.05
2019-03-27T00:14:04.050Z,7.20
2019-03-27T00:16:36.078Z,5.50
2019-03-27T00:19:09.232Z,6.57
2019-03-27T00:21:42.158Z,5.23
2019-03-27T00:24:14.417Z,5.40
2019-03-27T00:26:49.138Z,5.10
2019-03-27T00:29:21.073Z,5.53
2019-03-27T00:31:54.156Z,8.00
2019-03-27T00:34:26.953Z,5.60
2019-03-27T00:36:59.254Z,6.57
2019-03-27T00:39:32.940Z,7.13
2019-03-27T00:42:07.260Z,6.10
2019-03-27T00:44:40.569Z,6.50
2019-03-27T00:47:16.781Z,7.70
2019-03-27T00:49:51.348Z,5.20
2019-03-27T00:52:24.121Z,5.63
2019-03-27T00:54:58.360Z,9.90
2019-03-27T00:57:33.239Z,8.27
2019-03-27T01:00:08.861Z,6.50
2019-03-27T01:02:42.296Z,7.77
2019-03-27T01:05:16.632Z,7.33
2019-03-27T01:07:48.579Z,8.10
2019-03-27T01:10:21.334Z,7.90
2019-03-27T01:12:54.345Z,7.60
2019-03-27T01:15:39.129Z,7.20
2019-03-27T01:18:03.335Z,13.00
2019-03-27T01:20:36.263Z,9.17
2019-03-27T01:23:09.456Z,8.80
2019-03-27T01:25:46.245Z,8.03
2019-03-27T01:28:18.768Z,16.03
2019-03-27T01:30:53.389Z,9.20
2019-03-27T01:33:29.265Z,10.83
2019-03-27T01:36:02.749Z,10.67
2019-03-27T01:38:36.299Z,7.70
2019-03-27T01:41:09.682Z,12.73
2019-03-27T01:43:43.518Z,9.27
2019-03-27T01:46:18.792Z,12.87
2019-03-27T01:49:02.975Z,10.40
2019-03-27T01:51:36.656Z,10.10
2019-03-27T01:54:08.558Z,8.23
2019-03-27T01:56:40.488Z,11.20
2019-03-27T01:59:13.577Z,15.67
2019-03-27T02:01:47.459Z,15.83
2019-03-27T02:04:20.904Z,15.03
2019-03-27T02:06:55.529Z,9.60
2019-03-27T02:09:27.620Z,13.20
2019-03-27T02:12:01.153Z,16.00
2019-03-27T02:14:33.512Z,15.87
2019-03-27T02:17:06.666Z,12.27
2019-03-27T02:19:39.668Z,9.83
2019-03-27T02:22:13.169Z,20.80
2019-03-27T02:24:49.264Z,13.23
2019-03-27T02:27:21.184Z,16.00
2019-03-27T02:29:54.578Z,11.13
2019-03-27T02:32:27.694Z,21.90
2019-03-27T02:35:01.712Z,16.00
2019-03-27T02:37:33.676Z,21.90
2019-03-27T02:40:07.662Z,14.60
2019-03-27T02:42:39.656Z,18.20
2019-03-27T02:45:14.398Z,11.47
2019-03-27T02:47:47.910Z,21.37
2019-03-27T02:50:21.027Z,15.27
2019-03-27T02:52:57.404Z,22.47
2019-03-27T02:55:30.907Z,20.00
2019-03-27T02:58:02.754Z,19.37
2019-03-27T03:00:37.705Z,16.57
2019-03-27T03:03:10.901Z,15.87
2019-03-27T03:05:44.834Z,19.57
2019-03-27T03:08:17.930Z,17.73
2019-03-27T03:10:52.373Z,18.50
2019-03-27T03:13:24.956Z,20.20
2019-03-27T03:15:56.854Z,24.87
2019-03-27T03:18:29.894Z,26.43
2019-03-27T03:21:02.222Z,17.67
2019-03-27T03:23:35.872Z,26.93
2019-03-27T03:26:08.933Z,18.40
2019-03-27T03:28:41.959Z,22.90
2019-03-27T03:31:14.020Z,23.87
2019-03-27T03:33:45.965Z,26.53
2019-03-27T03:36:17.891Z,32.20
2019-03-27T03:38:51.807Z,24.87
2019-03-27T03:41:24.006Z,23.25
2019-03-27T03:43:58.175Z,31.10
2019-03-27T03:46:32.949Z,30.33
2019-03-27T03:49:07.261Z,32.53
2019-03-27T03:51:39.583Z,28.67
2019-03-27T03:54:12.542Z,26.30
2019-03-27T03:56:46.040Z,30.37
2019-03-27T03:59:22.313Z,37.20
2019-03-27T04:02:01.666Z,34.07
2019-03-27T04:04:37.780Z,37.17
2019-03-27T04:07:11.250Z,36.47
2019-03-27T04:09:43.720Z,33.87
2019-03-27T04:12:18.238Z,38.33
2019-03-27T04:14:52.217Z,37.07
2019-03-27T04:17:24.245Z,33.92
2019-03-27T04:19:58.054Z,31.40
2019-03-27T04:22:30.490Z,34.53
2019-03-27T04:25:03.272Z,33.73
2019-03-27T04:27:36.546Z,34.73
2019-03-27T04:30:10.620Z,39.83
2019-03-27T04:32:44.751Z,39.03
2019-03-27T04:35:19.664Z,38.20
2019-03-27T04:37:56.228Z,45.70
2019-03-27T04:40:30.441Z,42.60
2019-03-27T04:43:03.403Z,33.70
2019-03-27T04:45:36.290Z,40.57
2019-03-27T04:48:08.571Z,30.80
2019-03-27T04:50:42.392Z,32.13
2019-03-27T04:53:16.380Z,35.53
2019-03-27T04:55:48.818Z,30.07
2019-03-27T04:58:21.440Z,33.97
2019-03-27T05:00:53.533Z,35.40
2019-03-27T05:03:27.495Z,34.00
2019-03-27T05:06:01.506Z,38.20
2019-03-27T05:08:33.375Z,36.20
2019-03-27T05:11:06.427Z,34.30
2019-03-27T05:13:41.720Z,37.13
2019-03-27T05:16:16.210Z,35.38
2019-03-27T05:18:50.543Z,36.33
2019-03-27T05:21:24.483Z,36.30
2019-03-27T05:23:56.511Z,37.77
2019-03-27T05:26:30.572Z,40.20
2019-03-27T05:29:04.697Z,39.10
2019-03-27T05:31:39.388Z,35.90
2019-03-27T05:34:12.641Z,36.10
2019-03-27T05:36:46.715Z,36.13
2019-03-27T05:39:20.738Z,34.95
2019-03-27T05:41:53.717Z,54.07
2019-03-27T05:44:30.080Z,35.50
2019-03-27T05:47:02.343Z,45.63
2019-03-27T05:49:36.670Z,38.30
2019-03-27T05:52:08.593Z,46.73
2019-03-27T05:54:42.732Z,39.13
2019-03-27T05:57:15.741Z,42.37
2019-03-27T05:59:48.773Z,37.97
2019-03-27T06:02:20.789Z,39.77
2019-03-27T06:04:55.574Z,41.03
2019-03-27T06:07:27.794Z,44.43
2019-03-27T06:09:59.962Z,45.28
2019-03-27T06:12:34.381Z,38.80
2019-03-27T06:15:08.190Z,36.90
2019-03-27T06:17:41.889Z,37.03
2019-03-27T06:20:15.086Z,40.77
2019-03-27T06:22:48.901Z,42.10
2019-03-27T06:25:21.481Z,33.80
2019-03-27T06:27:55.064Z,40.33
2019-03-27T06:30:28.770Z,39.90
2019-03-27T06:33:02.884Z,39.70
2019-03-27T06:35:36.902Z,36.17
2019-03-27T06:38:10.701Z,45.27
2019-03-27T06:40:43.898Z,41.57
2019-03-27T06:43:16.314Z,39.53
2019-03-27T06:45:48.916Z,35.77
2019-03-27T06:48:26.415Z,39.90
2019-03-27T06:50:58.047Z,43.03
2019-03-27T06:53:30.975Z,46.93
2019-03-27T06:56:04.199Z,40.63
2019-03-27T06:58:53.589Z,43.00
2019-03-27T07:01:15.972Z,38.50
2019-03-27T07:03:49.926Z,39.93
2019-03-27T07:06:21.811Z,39.27
2019-03-27T07:08:54.953Z,39.30
2019-03-27T07:11:27.987Z,46.83
2019-03-27T07:14:00.983Z,42.63
2019-03-27T07:16:34.071Z,40.90
2019-03-27T07:19:07.116Z,42.23
2019-03-27T07:21:39.450Z,41.00
2019-03-27T07:24:12.784Z,42.87
2019-03-27T07:26:46.165Z,44.17
2019-03-27T07:29:22.715Z,48.53
2019-03-27T07:31:55.110Z,45.40
2019-03-27T07:34:28.080Z,47.43
2019-03-27T07:37:00.061Z,46.20
2019-03-27T07:39:35.272Z,46.83
2019-03-27T07:42:09.249Z,43.47
2019-03-27T07:44:42.210Z,43.42
2019-03-27T07:47:17.624Z,46.60
2019-03-27T07:49:52.169Z,43.23
2019-03-27T07:52:25.397Z,44.13
2019-03-27T07:54:58.285Z,43.53
2019-03-27T07:57:33.184Z,43.00
2019-03-27T08:00:07.843Z,50.10
2019-03-27T08:02:41.206Z,41.20
2019-03-27T08:05:23.853Z,40.63
2019-03-27T08:08:03.280Z,44.87
2019-03-27T08:10:37.459Z,41.83
2019-03-27T08:13:10.310Z,45.00
2019-03-27T08:15:44.058Z,39.10
2019-03-27T08:18:24.171Z,42.83
2019-03-27T08:20:59.218Z,40.40
2019-03-27T08:23:31.976Z,42.83
2019-03-27T08:26:06.045Z,39.77
2019-03-27T08:28:40.516Z,40.70
2019-03-27T08:31:14.353Z,42.33
2019-03-27T08:33:46.470Z,42.27
2019-03-27T08:36:25.435Z,40.83
2019-03-27T08:38:57.561Z,47.47
2019-03-27T08:41:34.371Z,39.15
2019-03-27T08:44:08.417Z,44.60
2019-03-27T08:46:42.102Z,46.17
2019-03-27T08:49:21.819Z,40.73
2019-03-27T08:51:49.707Z,42.80
2019-03-27T08:54:26.284Z,38.30
2019-03-27T08:56:59.027Z,39.93
2019-03-27T08:59:31.956Z,38.57
2019-03-27T09:02:04.645Z,46.67
2019-03-27T09:04:37.682Z,40.17
2019-03-27T09:07:10.759Z,36.33
2019-03-27T09:09:44.243Z,35.83
2019-03-27T09:12:19.247Z,39.10
2019-03-27T09:14:56.997Z,37.50
2019-03-27T09:17:30.593Z,37.37
2019-03-27T09:20:03.603Z,38.27
2019-03-27T09:22:38.026Z,39.83
2019-03-27T09:25:14.713Z,33.53
2019-03-27T09:27:47.560Z,34.03
2019-03-27T09:30:20.340Z,34.90
2019-03-27T09:32:54.512Z,32.30
2019-03-27T09:35:32.761Z,36.50
2019-03-27T09:38:04.845Z,36.20
2019-03-27T09:40:41.874Z,29.33
2019-03-27T09:43:15.723Z,32.57
2019-03-27T09:45:49.780Z,29.97
2019-03-27T09:48:21.754Z,29.23
2019-03-27T09:50:56.725Z,29.37
2019-03-27T09:53:30.668Z,29.20
2019-03-27T09:56:18.099Z,31.83
2019-03-27T09:58:42.709Z,32.20
2019-03-27T10:01:16.734Z,27.10
2019-03-27T10:03:53.994Z,29.17
2019-03-27T10:06:33.523Z,28.33
2019-03-27T10:09:20.901Z,27.93
2019-03-27T10:12:01.044Z,25.70
2019-03-27T10:14:43.643Z,20.97
2019-03-27T10:17:37.011Z,27.93
2019-03-27T10:20:16.427Z,20.77
2019-03-27T10:22:51.692Z,23.77
2019-03-27T10:25:32.318Z,28.47
2019-03-27T10:28:15.567Z,26.00
2019-03-27T10:30:52.473Z,24.70
2019-03-27T10:33:28.313Z,36.10
2019-03-27T10:36:04.851Z,26.53
2019-03-27T10:38:41.587Z,20.70
2019-03-27T10:41:26.181Z,20.83
2019-03-27T10:44:01.201Z,21.37
2019-03-27T10:46:36.586Z,24.03
2019-03-27T10:49:12.222Z,21.87
2019-03-27T10:51:48.833Z,24.93
2019-03-27T10:54:22.736Z,18.90
2019-03-27T10:57:01.123Z,18.97
2019-03-27T10:59:40.315Z,19.43
2019-03-27T11:02:12.964Z,18.70
2019-03-27T11:04:53.546Z,17.93
2019-03-27T11:07:26.943Z,18.97
2019-03-27T11:09:59.916Z,18.53
2019-03-27T11:12:34.210Z,18.00
2019-03-27T11:15:29.557Z,21.63
2019-03-27T11:18:04.961Z,27.23
2019-03-27T11:20:37.311Z,20.57
2019-03-27T11:23:11.589Z,25.20
2019-03-27T11:25:47.726Z,20.07
2019-03-27T11:28:21.688Z,28.73
2019-03-27T11:30:57.271Z,22.50
2019-03-27T11:33:31.118Z,23.47
2019-03-27T11:36:03.175Z,21.83
2019-03-27T11:38:37.822Z,31.03
2019-03-27T11:41:12.367Z,23.10
2019-03-27T11:43:55.156Z,26.30
2019-03-27T11:46:25.193Z,23.03
2019-03-27T11:48:58.145Z,27.10
2019-03-27T11:51:31.235Z,28.43
2019-03-27T11:54:05.322Z,25.20
2019-03-27T11:56:40.241Z,24.70
2019-03-27T11:59:13.366Z,30.30
2019-03-27T12:01:46.332Z,30.27
2019-03-27T12:04:19.581Z,34.97
2019-03-27T12:06:52.402Z,30.50
2019-03-27T12:09:25.424Z,27.73
2019-03-27T12:11:58.180Z,32.50
2019-03-27T12:14:31.282Z,31.63
2019-03-27T12:17:04.393Z,29.13
2019-03-27T12:19:38.004Z,30.43
2019-03-27T12:22:14.324Z,28.17
2019-03-27T12:24:46.444Z,26.87
2019-03-27T12:27:22.310Z,24.00
2019-03-27T12:29:58.022Z,26.03
2019-03-27T12:32:31.406Z,25.50
2019-03-27T12:35:04.471Z,25.17
2019-03-27T12:37:38.421Z,26.50
2019-03-27T12:40:11.773Z,26.20
2019-03-27T12:42:46.534Z,23.57
2019-03-27T12:45:19.501Z,25.67
2019-03-27T12:47:52.512Z,23.00
2019-03-27T12:50:25.419Z,22.80
2019-03-27T12:52:57.503Z,25.60
2019-03-27T12:55:37.599Z,22.67
2019-03-27T12:58:18.190Z,22.10
2019-03-27T13:00:53.830Z,27.90
2019-03-27T13:03:33.764Z,25.43
2019-03-27T13:06:15.999Z,23.73
2019-03-27T13:08:56.911Z,22.47
2019-03-27T13:11:36.746Z,22.30
2019-03-27T13:14:14.368Z,26.50
2019-03-27T13:16:52.297Z,27.53
2019-03-27T13:19:26.316Z,27.77
2019-03-27T13:21:59.008Z,27.43
2019-03-27T13:24:31.698Z,26.80
2019-03-27T13:27:04.863Z,31.90
2019-03-27T13:29:38.702Z,26.10
2019-03-27T13:32:12.591Z,27.70
2019-03-27T13:34:47.096Z,30.07
2019-03-27T13:37:21.881Z,29.90
2019-03-27T13:39:53.889Z,31.83
2019-03-27T13:42:29.058Z,27.00
2019-03-27T13:45:01.952Z,31.77
2019-03-27T13:47:34.761Z,32.13
2019-03-27T13:50:12.696Z,34.17
2019-03-27T13:52:48.588Z,31.47
2019-03-27T13:55:21.129Z,26.17
2019-03-27T13:57:55.853Z,30.33
2019-03-27T14:00:28.719Z,30.47
2019-03-27T14:03:02.757Z,28.50
2019-03-27T14:05:34.907Z,25.13
2019-03-27T14:08:07.821Z,29.00
2019-03-27T14:10:41.122Z,27.40
2019-03-27T14:13:18.318Z,28.67
2019-03-27T14:15:54.150Z,31.50
2019-03-27T14:18:31.026Z,30.03
2019-03-27T14:21:06.153Z,29.23
2019-03-27T14:23:40.882Z,25.43
2019-03-27T14:26:13.863Z,25.30
2019-03-27T14:28:47.260Z,16.23
2019-03-27T14:31:19.915Z,22.60
2019-03-27T14:33:53.774Z,24.37
2019-03-27T14:36:25.648Z,22.90
2019-03-27T14:38:58.880Z,21.50
2019-03-27T14:41:32.009Z,24.10
2019-03-27T14:44:04.912Z,21.23
2019-03-27T14:46:37.860Z,22.53
2019-03-27T14:49:10.072Z,20.57
2019-03-27T14:51:45.695Z,21.13
2019-03-27T14:54:19.923Z,23.87
2019-03-27T14:56:53.019Z,17.97
2019-03-27T14:59:24.940Z,21.80
2019-03-27T15:02:00.011Z,18.43
2019-03-27T15:04:31.809Z,23.07
2019-03-27T15:07:04.863Z,17.70
2019-03-27T15:09:37.943Z,20.23
2019-03-27T15:12:12.185Z,22.03
2019-03-27T15:14:45.998Z,22.00
2019-03-27T15:17:18.377Z,21.63
2019-03-27T15:19:53.005Z,21.30
2019-03-27T15:22:27.041Z,18.83
2019-03-27T15:25:01.004Z,24.87
2019-03-27T15:27:35.109Z,24.30
2019-03-27T15:30:12.553Z,24.90
2019-03-27T15:32:43.033Z,30.73
2019-03-27T15:35:15.440Z,30.83
2019-03-27T15:37:49.588Z,38.47
2019-03-27T15:40:40.245Z,33.40
2019-03-27T15:43:12.399Z,25.53
2019-03-27T15:45:45.061Z,27.70
2019-03-27T15:48:19.798Z,22.27
2019-03-27T15:50:58.458Z,23.30
2019-03-27T15:53:28.162Z,24.05
2019-03-27T15:56:00.299Z,23.40
2019-03-27T15:58:34.294Z,29.90
2019-03-27T16:01:08.226Z,26.20
2019-03-27T16:03:40.278Z,30.03
2019-03-27T16:06:13.249Z,28.93
2019-03-27T16:08:46.254Z,28.03
2019-03-27T16:11:18.995Z,24.57
2019-03-27T16:13:53.408Z,24.67
2019-03-27T16:16:25.301Z,29.90
2019-03-27T16:18:57.852Z,28.47
2019-03-27T16:21:31.563Z,31.23
2019-03-27T16:24:06.687Z,29.50
2019-03-27T16:26:40.397Z,26.53
2019-03-27T16:29:13.924Z,24.52
2019-03-27T16:31:47.175Z,29.75
2019-03-27T16:34:19.807Z,27.27
2019-03-27T16:36:54.218Z,29.43
2019-03-27T16:39:28.271Z,33.17
2019-03-27T16:42:02.346Z,29.90
2019-03-27T16:44:34.350Z,27.57
2019-03-27T16:47:08.576Z,26.67
2019-03-27T16:49:40.438Z,33.23
2019-03-27T16:52:13.573Z,28.73
2019-03-27T16:54:46.480Z,30.07
2019-03-27T16:57:20.491Z,33.37
2019-03-27T16:59:52.322Z,34.83
2019-03-27T17:02:25.419Z,35.70
2019-03-27T17:04:59.346Z,32.83
2019-03-27T17:07:32.646Z,31.77
2019-03-27T17:10:04.984Z,34.73
2019-03-27T17:12:37.571Z,32.07
2019-03-27T17:15:10.729Z,34.23
2019-03-27T17:17:43.521Z,34.43
2019-03-27T17:20:17.173Z,41.77
2019-03-27T17:22:49.469Z,42.53
2019-03-27T17:25:22.174Z,39.53
2019-03-27T17:27:56.024Z,83.10
2019-03-27T17:30:31.788Z,55.27
2019-03-27T17:33:04.561Z,33.30
2019-03-27T17:35:37.628Z,34.87
2019-03-27T17:38:11.080Z,153.10
2019-03-27T17:40:43.674Z,112.97
2019-03-27T17:43:16.513Z,178.43
2019-03-27T17:45:49.735Z,70.47
2019-03-27T17:48:22.309Z,36.33
2019-03-27T17:50:54.888Z,34.70
2019-03-27T17:53:31.807Z,32.63
2019-03-27T17:56:04.720Z,37.77
2019-03-27T17:58:37.715Z,33.28
2019-03-27T18:01:09.563Z,29.40
2019-03-27T18:03:43.759Z,30.00
2019-03-27T18:06:16.962Z,26.63
2019-03-27T18:08:49.745Z,31.60
2019-03-27T18:11:22.641Z,33.87
2019-03-27T18:13:55.733Z,31.50
2019-03-27T18:16:28.817Z,29.67
2019-03-27T18:19:01.748Z,28.90
2019-03-27T18:21:34.685Z,29.97
2019-03-27T18:24:07.778Z,33.27
2019-03-27T18:26:42.742Z,32.37
2019-03-27T18:29:17.112Z,31.27
2019-03-27T18:31:49.398Z,39.60
2019-03-27T18:34:22.355Z,41.43
2019-03-27T18:36:56.022Z,40.53
2019-03-27T18:39:28.881Z,32.95
2019-03-27T18:42:01.666Z,27.98
2019-03-27T18:44:34.826Z,29.07
2019-03-27T18:47:07.953Z,35.57
2019-03-27T18:49:40.931Z,29.85
2019-03-27T18:52:13.941Z,31.03
2019-03-27T18:54:46.943Z,34.47
2019-03-27T18:57:20.102Z,30.35
2019-03-27T18:59:52.878Z,31.30
2019-03-27T19:02:25.925Z,31.60
2019-03-27T19:04:58.976Z,33.60
2019-03-27T19:07:32.035Z,31.60
2019-03-27T19:10:04.102Z,31.67
2019-03-27T19:12:37.983Z,34.27
2019-03-27T19:15:12.332Z,34.80
2019-03-27T19:17:46.058Z,28.37
2019-03-27T19:20:20.326Z,35.60
2019-03-27T19:22:52.407Z,36.80
2019-03-27T19:25:26.036Z,42.40
2019-03-27T19:28:00.062Z,46.97
2019-03-27T19:30:32.395Z,45.10
2019-03-27T19:33:05.409Z,39.70
2019-03-27T19:35:38.302Z,40.70
2019-03-27T19:38:11.299Z,37.30
2019-03-27T19:40:44.266Z,37.90
2019-03-27T19:43:18.299Z,38.65
2019-03-27T19:45:57.534Z,33.40
2019-03-27T19:48:31.206Z,35.23
2019-03-27T19:51:05.547Z,41.93
2019-03-27T19:53:39.346Z,33.70
2019-03-27T19:56:11.245Z,31.87
2019-03-27T19:58:44.280Z,32.50
2019-03-27T20:01:17.349Z,29.40
2019-03-27T20:03:50.320Z,38.23
2019-03-27T20:06:22.450Z,35.83
2019-03-27T20:08:56.973Z,35.70
2019-03-27T20:11:31.156Z,39.83
2019-03-27T20:14:05.525Z,32.17
2019-03-27T20:16:39.444Z,32.87
2019-03-27T20:19:13.748Z,32.75
2019-03-27T20:21:47.324Z,32.80
2019-03-27T20:24:24.443Z,33.70
2019-03-27T20:26:56.546Z,31.43
2019-03-27T20:29:29.371Z,32.28
2019-03-27T20:32:02.363Z,31.00
2019-03-27T20:34:36.474Z,29.20
2019-03-27T20:37:09.920Z,35.67
2019-03-27T20:39:46.269Z,38.37
2019-03-27T20:42:22.307Z,40.37
2019-03-27T20:44:56.936Z,37.33
2019-03-27T20:47:29.573Z,31.63
2019-03-27T20:50:03.569Z,32.53
2019-03-27T20:52:35.510Z,34.40
2019-03-27T20:55:08.831Z,36.83
2019-03-27T20:57:41.339Z,31.07
2019-03-27T21:00:15.868Z,30.93
2019-03-27T21:02:49.545Z,35.90
2019-03-27T21:05:22.562Z,36.30
2019-03-27T21:07:56.603Z,31.90
2019-03-27T21:10:28.426Z,36.63
2019-03-27T21:13:02.615Z,39.73
2019-03-27T21:15:34.430Z,35.60
2019-03-27T21:18:08.599Z,39.20
2019-03-27T21:20:40.642Z,30.60
2019-03-27T21:23:14.309Z,30.50
2019-03-27T21:25:46.503Z,33.87
2019-03-27T21:28:19.488Z,39.17
2019-03-27T21:30:52.564Z,37.77
2019-03-27T21:33:25.598Z,30.43
2019-03-27T21:35:59.513Z,32.67
2019-03-27T21:38:32.866Z,36.57
2019-03-27T21:41:08.396Z,32.10
2019-03-27T21:43:40.767Z,34.27
2019-03-27T21:46:13.579Z,32.73
2019-03-27T21:48:47.689Z,33.40
2019-03-27T21:51:20.592Z,32.63
2019-03-27T21:53:52.814Z,32.40
2019-03-27T21:56:25.723Z,35.10
2019-03-27T21:59:02.556Z,33.47
2019-03-27T22:01:34.852Z,34.90
2019-03-27T22:04:09.729Z,33.00
2019-03-27T22:06:43.744Z,35.77
2019-03-27T22:09:16.735Z,31.07
2019-03-27T22:11:51.280Z,35.33
2019-03-27T22:14:23.167Z,29.73
2019-03-27T22:16:56.800Z,31.90
2019-03-27T22:19:28.886Z,38.98
2019-03-27T22:22:02.952Z,32.90
2019-03-27T22:24:35.857Z,31.93
2019-03-27T22:27:07.889Z,35.63
2019-03-27T22:29:41.757Z,28.70
2019-03-27T22:32:14.878Z,30.60
2019-03-27T22:34:46.864Z,30.50
2019-03-27T22:37:21.255Z,27.40
2019-03-27T22:39:54.815Z,28.30
2019-03-27T22:42:28.998Z,26.83
2019-03-27T22:45:00.913Z,26.40
2019-03-27T22:47:34.975Z,28.97
2019-03-27T22:50:09.109Z,31.37
2019-03-27T22:52:44.016Z,30.00
2019-03-27T22:55:17.585Z,32.00
2019-03-27T22:57:52.342Z,27.90
2019-03-27T23:00:53.926Z,30.30
2019-03-27T23:03:26.050Z,30.87
2019-03-27T23:05:59.145Z,30.13
2019-03-27T23:08:32.034Z,27.80
2019-03-27T23:11:05.540Z,28.47
2019-03-27T23:13:38.947Z,31.67
2019-03-27T23:16:13.133Z,33.93
2019-03-27T23:18:46.974Z,34.50
2019-03-27T23:21:21.652Z,33.13
2019-03-27T23:23:56.120Z,31.23
2019-03-27T23:26:29.444Z,29.87
2019-03-27T23:29:02.227Z,33.07
2019-03-27T23:31:35.158Z,34.87
2019-03-27T23:34:08.459Z,39.83
2019-03-27T23:36:41.134Z,33.80
2019-03-27T23:39:13.328Z,35.07
2019-03-27T23:41:48.120Z,37.47
2019-03-27T23:44:20.430Z,32.80
2019-03-27T23:46:54.336Z,37.27
2019-03-27T23:49:29.199Z,37.43
2019-03-27T23:52:03.240Z,33.47
2019-03-27T23:54:35.255Z,32.63
2019-03-27T23:57:08.334Z,36.20
2019-03-27T23:59:43.308Z,35.83
